createdAt,value
2018-09-24T00:01:15.530Z,97972.10
2018-09-24T00:03:43.284Z,97929.44
2018-09-24T00:06:11.002Z,97986.94
2018-09-24T00:08:38.814Z,97992.33
2018-09-24T00:11:06.913Z,97997.18
2018-09-24T00:13:35.008Z,98006.62
2018-09-24T00:16:02.688Z,98013.13
2018-09-24T00:18:30.374Z,98017.41
2018-09-24T00:20:58.175Z,98014.80
2018-09-24T00:23:25.949Z,98027.66
2018-09-24T00:25:53.657Z,98026.62
2018-09-24T00:28:21.401Z,98047.39
2018-09-24T00:30:49.111Z,98043.34
2018-09-24T00:33:16.930Z,98037.72
2018-09-24T00:35:44.673Z,98052.55
2018-09-24T00:38:12.407Z,98051.20
2018-09-24T00:40:40.123Z,98058.72
2018-09-24T00:43:08.260Z,98065.78
2018-09-24T00:45:36.030Z,98066.90
2018-09-24T00:48:03.762Z,98068.25
2018-09-24T00:50:31.492Z,98079.84
2018-09-24T00:52:59.225Z,98084.97
2018-09-24T00:55:26.919Z,98084.20
2018-09-24T00:57:54.618Z,98088.48
2018-09-24T01:00:22.571Z,98093.06
2018-09-24T01:02:50.426Z,98100.92
2018-09-24T01:05:18.242Z,98105.78
2018-09-24T01:07:46.010Z,98111.71
2018-09-24T01:10:13.759Z,98112.83
2018-09-24T01:12:41.477Z,98106.09
2018-09-24T01:15:09.776Z,98119.34
2018-09-24T01:17:37.842Z,98106.30
2018-09-24T01:20:06.125Z,98129.33
2018-09-24T01:22:33.885Z,98094.42
2018-09-24T01:25:01.668Z,98136.88
2018-09-24T01:27:29.486Z,98137.41
2018-09-24T01:29:57.317Z,98148.75
2018-09-24T01:32:25.070Z,98157.64
2018-09-24T01:34:52.857Z,98161.20
2018-09-24T01:37:20.675Z,98166.84
2018-09-24T01:39:48.462Z,98170.63
2018-09-24T01:44:42.936Z,98178.26
2018-09-24T01:47:10.741Z,98177.69
2018-09-24T01:49:38.491Z,98183.08
2018-09-24T01:52:08.363Z,98183.08
2018-09-24T01:54:36.046Z,98188.47
2018-09-24T01:57:03.809Z,98183.66
2018-09-24T01:59:31.922Z,98189.36
2018-09-24T02:01:59.883Z,98188.01
2018-09-24T02:04:27.636Z,98196.64
2018-09-24T02:07:00.644Z,98198.22
2018-09-24T02:09:28.550Z,98196.64
2018-09-24T02:11:57.923Z,98204.73
2018-09-24T02:14:25.967Z,98200.45
2018-09-24T02:16:53.725Z,98207.42
2018-09-24T02:19:21.473Z,98217.41
2018-09-24T02:21:49.189Z,98212.82
2018-09-24T02:24:16.892Z,98217.98
2018-09-24T02:26:44.621Z,98221.77
2018-09-24T02:29:12.331Z,98224.45
2018-09-24T02:31:40.204Z,98225.03
2018-09-24T02:34:08.625Z,98221.77
2018-09-24T02:36:36.352Z,98226.38
2018-09-24T02:39:05.214Z,98222.88
2018-09-24T02:41:33.014Z,98230.16
2018-09-24T02:44:00.780Z,98228.27
2018-09-24T02:46:28.449Z,98231.28
2018-09-24T02:48:58.608Z,98234.78
2018-09-24T02:51:26.292Z,98243.95
2018-09-24T02:53:54.011Z,98245.06
2018-09-24T02:56:21.725Z,98249.66
2018-09-24T02:58:49.426Z,98246.41
2018-09-24T03:01:17.146Z,98255.05
2018-09-24T03:03:46.931Z,98089.88
2018-09-24T03:06:14.665Z,98255.85
2018-09-24T03:08:42.390Z,98262.91
2018-09-24T03:11:10.145Z,98264.80
2018-09-24T03:13:37.870Z,98273.38
2018-09-24T03:16:05.578Z,98278.54
2018-09-24T03:18:33.295Z,98289.87
2018-09-24T03:21:01.025Z,98287.48
2018-09-24T03:23:28.750Z,98281.73
2018-09-24T03:25:56.569Z,98295.56
2018-09-24T03:28:24.332Z,98289.94
2018-09-24T03:30:52.064Z,98304.77
2018-09-24T03:33:19.777Z,98297.77
2018-09-24T03:35:47.453Z,98305.85
2018-09-24T03:38:15.207Z,98309.89
2018-09-24T03:40:42.933Z,98312.05
2018-09-24T03:43:10.707Z,98313.94
2018-09-24T03:45:38.459Z,98316.64
2018-09-24T03:48:06.359Z,98312.36
2018-09-24T03:50:34.176Z,98312.12
2018-09-24T03:53:01.927Z,98314.02
2018-09-24T03:55:29.672Z,98306.47
2018-09-24T03:57:57.390Z,98311.86
2018-09-24T04:00:25.132Z,98250.30
2018-09-24T04:02:52.947Z,98314.32
2018-09-24T04:05:25.958Z,98311.63
2018-09-24T04:07:58.978Z,98314.32
2018-09-24T04:10:31.937Z,98314.63
2018-09-24T04:13:05.103Z,98317.33
2018-09-24T04:15:38.105Z,98316.78
2018-09-24T04:18:11.131Z,98322.72
2018-09-24T04:20:44.248Z,98327.30
2018-09-24T04:23:17.369Z,98324.37
2018-09-24T04:25:50.518Z,98338.09
2018-09-24T04:28:23.796Z,98336.50
2018-09-24T04:30:57.005Z,98337.05
2018-09-24T04:33:30.251Z,98346.48
2018-09-24T04:36:03.349Z,98348.94
2018-09-24T04:38:36.518Z,98357.27
2018-09-24T04:41:09.661Z,98359.72
2018-09-24T04:43:42.822Z,98359.48
2018-09-24T04:46:15.747Z,98365.66
2018-09-24T04:48:48.875Z,98367.88
2018-09-24T04:51:21.964Z,98365.96
2018-09-24T04:53:54.793Z,98360.57
2018-09-24T04:56:28.009Z,98371.69
2018-09-24T04:59:00.915Z,98367.92
2018-09-24T05:01:33.982Z,98384.63
2018-09-24T05:04:07.114Z,98391.38
2018-09-24T05:06:39.915Z,98397.88
2018-09-24T05:09:13.541Z,98398.41
2018-09-24T05:11:46.653Z,98407.84
2018-09-24T05:14:19.722Z,98409.73
2018-09-24T05:16:52.745Z,98409.73
2018-09-24T05:19:26.916Z,98416.48
2018-09-24T05:22:00.047Z,98426.48
2018-09-24T05:24:33.028Z,98428.61
2018-09-24T05:27:05.988Z,98433.76
2018-09-24T05:29:39.036Z,98440.73
2018-09-24T05:32:12.175Z,98441.84
2018-09-24T05:34:45.273Z,98439.69
2018-09-24T05:37:18.113Z,98452.39
2018-09-24T05:39:51.052Z,98452.39
2018-09-24T05:42:24.157Z,98456.17
2018-09-24T05:44:57.292Z,98473.15
2018-09-24T05:47:30.443Z,98473.69
2018-09-24T05:50:03.476Z,98481.23
2018-09-24T05:52:36.557Z,98490.43
2018-09-24T05:55:09.690Z,98499.05
2018-09-24T05:57:42.777Z,98506.34
2018-09-24T06:00:15.953Z,98514.13
2018-09-24T06:02:49.037Z,98522.20
2018-09-24T06:05:22.138Z,98529.52
2018-09-24T06:07:55.177Z,98532.75
2018-09-24T06:10:29.303Z,98544.07
2018-09-24T06:13:02.162Z,98546.23
2018-09-24T06:15:35.157Z,98547.03
2018-09-24T06:18:08.207Z,98554.31
2018-09-24T06:20:41.294Z,98555.42
2018-09-24T06:23:14.122Z,98569.38
2018-09-24T06:25:47.118Z,98575.58
2018-09-24T06:28:20.251Z,98574.77
2018-09-24T06:30:53.049Z,98582.86
2018-09-24T06:33:26.082Z,98589.36
2018-09-24T06:35:59.059Z,98590.47
2018-09-24T06:38:32.010Z,98605.29
2018-09-24T06:41:04.968Z,98599.90
2018-09-24T06:43:38.014Z,98612.27
2018-09-24T06:46:11.233Z,98616.61
2018-09-24T06:48:44.089Z,98622.24
2018-09-24T06:51:17.004Z,98622.52
2018-09-24T06:53:50.064Z,98632.99
2018-09-24T06:56:22.850Z,98645.37
2018-09-24T06:58:55.905Z,98645.91
2018-09-24T07:01:28.787Z,98654.29
2018-09-24T07:04:01.941Z,98655.63
2018-09-24T07:06:34.762Z,98661.89
2018-09-24T07:09:07.638Z,98663.72
2018-09-24T07:11:40.790Z,98668.58
2018-09-24T07:14:13.742Z,98679.06
2018-09-24T07:16:46.826Z,98676.88
2018-09-24T07:19:19.721Z,98676.42
2018-09-24T07:21:52.826Z,98681.81
2018-09-24T07:24:25.787Z,98689.84
2018-09-24T07:26:58.801Z,98674.48
2018-09-24T07:29:31.798Z,98685.20
2018-09-24T07:32:04.619Z,98687.15
2018-09-24T07:34:37.589Z,98706.53
2018-09-24T07:37:10.406Z,98700.03
2018-09-24T07:39:43.351Z,98715.16
2018-09-24T07:42:16.438Z,98718.39
2018-09-24T07:44:49.322Z,98726.75
2018-09-24T07:47:22.390Z,98735.13
2018-09-24T07:49:55.293Z,98742.66
2018-09-24T07:52:28.249Z,98737.77
2018-09-24T07:55:01.281Z,98753.09
2018-09-24T07:57:34.333Z,98761.72
2018-09-24T08:00:07.227Z,98758.48
2018-09-24T08:02:39.998Z,98765.77
2018-09-24T08:05:13.109Z,98770.62
2018-09-24T08:07:46.024Z,98773.37
2018-09-24T08:10:19.124Z,98780.09
2018-09-24T08:12:52.279Z,98783.90
2018-09-24T08:15:25.285Z,98785.50
2018-09-24T08:17:58.367Z,98787.88
2018-09-24T08:20:31.429Z,98779.78
2018-09-24T08:23:04.370Z,98793.24
2018-09-24T08:25:37.337Z,98798.97
2018-09-24T08:28:10.253Z,98803.80
2018-09-24T08:30:43.338Z,98801.86
2018-09-24T08:33:16.429Z,98799.76
2018-09-24T08:35:49.342Z,98817.53
2018-09-24T08:38:22.435Z,98823.14
2018-09-24T08:40:55.237Z,98810.66
2018-09-24T08:43:28.297Z,98826.96
2018-09-24T08:46:01.212Z,98829.66
2018-09-24T08:48:34.310Z,98840.44
2018-09-24T08:51:07.249Z,98826.08
2018-09-24T08:53:40.045Z,98841.50
2018-09-24T08:56:13.091Z,98837.16
2018-09-24T08:58:46.125Z,98842.12
2018-09-24T09:01:19.032Z,98848.86
2018-09-24T09:03:52.102Z,98845.08
2018-09-24T09:06:25.119Z,98841.33
2018-09-24T09:08:58.043Z,98840.22
2018-09-24T09:11:30.878Z,98851.16
2018-09-24T09:14:03.733Z,98854.20
2018-09-24T09:16:36.794Z,98857.95
2018-09-24T09:19:09.878Z,98860.98
2018-09-24T09:21:42.921Z,98848.05
2018-09-24T09:24:15.819Z,98854.38
2018-09-24T09:26:48.591Z,98855.55
2018-09-24T09:29:21.636Z,98854.51
2018-09-24T09:31:54.399Z,98859.34
2018-09-24T09:34:27.198Z,98865.75
2018-09-24T09:37:00.217Z,98859.77
2018-09-24T09:39:33.176Z,98861.30
2018-09-24T09:42:06.153Z,98856.43
2018-09-24T09:44:39.298Z,98864.23
2018-09-24T09:47:12.152Z,98852.14
2018-09-24T09:49:44.999Z,98863.64
2018-09-24T09:52:18.048Z,98849.93
2018-09-24T09:54:51.052Z,98851.63
2018-09-24T09:57:24.210Z,98846.64
2018-09-24T09:59:57.318Z,98854.14
2018-09-24T10:02:30.288Z,98859.54
2018-09-24T10:05:03.125Z,98852.55
2018-09-24T10:07:36.167Z,98855.84
2018-09-24T10:10:09.267Z,98850.91
2018-09-24T10:12:42.347Z,98855.77
2018-09-24T10:15:15.198Z,98847.09
2018-09-24T10:17:47.976Z,98845.81
2018-09-24T10:20:20.750Z,98840.66
2018-09-24T10:22:53.693Z,98851.62
2018-09-24T10:25:26.788Z,98841.69
2018-09-24T10:27:59.653Z,98854.59
2018-09-24T10:30:32.538Z,98851.84
2018-09-24T10:33:05.551Z,98865.10
2018-09-24T10:35:38.369Z,98857.77
2018-09-24T10:38:11.365Z,98864.10
2018-09-24T10:40:44.390Z,98862.80
2018-09-24T10:43:17.345Z,98855.25
2018-09-24T10:45:50.381Z,98857.36
2018-09-24T10:48:23.264Z,98860.41
2018-09-24T10:50:56.323Z,98864.47
2018-09-24T10:53:29.461Z,98863.93
2018-09-24T10:56:02.539Z,98862.28
2018-09-24T10:58:35.639Z,98866.88
2018-09-24T11:01:08.437Z,98858.66
2018-09-24T11:03:41.322Z,98856.72
2018-09-24T11:06:14.577Z,98849.67
2018-09-24T11:08:47.678Z,98855.07
2018-09-24T11:11:20.754Z,98860.12
2018-09-24T11:13:53.786Z,98871.72
2018-09-24T11:16:26.874Z,98857.70
2018-09-24T11:18:59.950Z,98862.23
2018-09-24T11:21:32.976Z,98862.80
2018-09-24T11:24:05.830Z,98859.98
2018-09-24T11:26:38.911Z,98864.62
2018-09-24T11:29:11.822Z,98854.66
2018-09-24T11:31:44.714Z,98855.95
2018-09-24T11:34:17.722Z,98865.16
2018-09-24T11:36:50.769Z,98865.10
2018-09-24T11:39:23.653Z,98858.34
2018-09-24T11:41:56.698Z,98859.70
2018-09-24T11:44:29.616Z,98865.97
2018-09-24T11:47:02.528Z,98855.47
2018-09-24T11:49:35.585Z,98871.14
2018-09-24T11:52:08.455Z,98868.15
2018-09-24T11:54:41.394Z,98871.36
2018-09-24T11:57:14.314Z,98868.27
2018-09-24T11:59:47.390Z,98865.86
2018-09-24T12:02:20.198Z,98867.31
2018-09-24T12:04:53.270Z,98869.20
2018-09-24T12:07:26.860Z,98861.99
2018-09-24T12:10:00.594Z,98859.98
2018-09-24T12:12:33.397Z,98848.55
2018-09-24T12:15:06.321Z,98839.64
2018-09-24T12:17:39.345Z,98850.73
2018-09-24T12:20:12.445Z,98852.55
2018-09-24T12:22:45.509Z,98855.07
2018-09-24T12:25:18.421Z,98851.89
2018-09-24T12:27:51.474Z,98853.26
2018-09-24T12:30:24.427Z,98841.69
2018-09-24T12:32:57.458Z,98826.75
2018-09-24T12:35:30.541Z,98834.89
2018-09-24T12:38:03.553Z,98833.55
2018-09-24T12:40:36.725Z,98828.27
2018-09-24T12:43:09.699Z,98832.66
2018-09-24T12:45:42.560Z,98847.84
2018-09-24T12:48:15.608Z,98838.19
2018-09-24T12:50:48.686Z,98850.61
2018-09-24T12:53:21.563Z,98852.26
2018-09-24T12:55:54.653Z,98845.81
2018-09-24T12:58:27.545Z,98847.97
2018-09-24T13:01:00.633Z,98852.02
2018-09-24T13:03:33.734Z,98857.11
2018-09-24T13:06:06.742Z,98852.26
2018-09-24T13:08:39.748Z,98855.55
2018-09-24T13:11:12.852Z,98853.07
2018-09-24T13:13:45.866Z,98844.85
2018-09-24T13:16:18.685Z,98845.46
2018-09-24T13:18:51.697Z,98848.16
2018-09-24T13:21:24.594Z,98845.84
2018-09-24T13:23:57.464Z,98851.95
2018-09-24T13:26:30.224Z,98843.31
2018-09-24T13:29:03.111Z,98841.86
2018-09-24T13:31:36.201Z,98843.72
2018-09-24T13:34:09.121Z,98846.06
2018-09-24T13:36:42.204Z,98848.23
2018-09-24T13:39:15.107Z,98856.63
2018-09-24T13:41:48.136Z,98855.19
2018-09-24T13:44:20.861Z,98851.55
2018-09-24T13:46:53.852Z,98852.64
2018-09-24T13:49:27.025Z,98848.90
2018-09-24T13:51:59.810Z,98845.92
2018-09-24T13:54:32.844Z,98848.79
2018-09-24T13:57:05.753Z,98845.88
2018-09-24T13:59:38.561Z,98851.17
2018-09-24T14:02:11.469Z,98835.33
2018-09-24T14:04:44.497Z,98844.27
2018-09-24T14:07:17.429Z,98838.41
2018-09-24T14:09:50.249Z,98846.18
2018-09-24T14:12:23.232Z,98836.60
2018-09-24T14:14:56.124Z,98837.81
2018-09-24T14:17:28.899Z,98836.28
2018-09-24T14:20:02.014Z,98833.39
2018-09-24T14:22:35.076Z,98821.41
2018-09-24T14:25:09.117Z,98821.01
2018-09-24T14:27:42.123Z,98824.67
2018-09-24T14:30:15.125Z,98835.23
2018-09-24T14:32:48.208Z,98830.98
2018-09-24T14:35:21.379Z,98837.03
2018-09-24T14:37:54.460Z,98839.73
2018-09-24T14:40:27.529Z,98842.02
2018-09-24T14:43:00.475Z,98833.92
2018-09-24T14:45:33.550Z,98836.03
2018-09-24T14:48:06.602Z,98825.81
2018-09-24T14:50:39.709Z,98834.38
2018-09-24T14:53:12.889Z,98834.30
2018-09-24T14:55:45.926Z,98833.77
2018-09-24T14:58:18.990Z,98834.30
2018-09-24T15:00:52.067Z,98826.27
2018-09-24T15:03:25.105Z,98832.71
2018-09-24T15:05:58.200Z,98826.74
2018-09-24T15:08:31.218Z,98821.64
2018-09-24T15:11:04.300Z,98823.34
2018-09-24T15:13:37.405Z,98825.89
2018-09-24T15:16:10.458Z,98829.34
2018-09-24T15:18:43.486Z,98835.87
2018-09-24T15:21:16.434Z,98831.52
2018-09-24T15:23:49.549Z,98842.59
2018-09-24T15:26:22.659Z,98839.22
2018-09-24T15:28:55.791Z,98843.27
2018-09-24T15:31:28.888Z,98839.67
2018-09-24T15:34:02.100Z,98835.63
2018-09-24T15:36:35.360Z,98840.56
2018-09-24T15:39:08.413Z,98836.30
2018-09-24T15:41:41.352Z,98842.05
2018-09-24T15:44:14.510Z,98835.81
2018-09-24T15:46:47.609Z,98841.51
2018-09-24T15:49:20.680Z,98841.53
2018-09-24T15:51:53.794Z,98834.25
2018-09-24T15:54:26.905Z,98844.55
2018-09-24T15:56:59.930Z,98854.23
2018-09-24T15:59:33.000Z,98845.63
2018-09-24T16:02:06.213Z,98845.55
2018-09-24T16:04:39.338Z,98843.45
2018-09-24T16:07:12.387Z,98846.69
2018-09-24T16:09:45.471Z,98839.64
2018-09-24T16:12:18.609Z,98844.23
2018-09-24T16:14:51.793Z,98853.19
2018-09-24T16:17:24.549Z,98853.48
2018-09-24T16:19:57.825Z,98852.13
2018-09-24T16:22:30.837Z,98855.66
2018-09-24T16:25:03.918Z,98858.06
2018-09-24T16:27:37.015Z,98864.52
2018-09-24T16:30:10.169Z,98863.27
2018-09-24T16:32:43.133Z,98857.31
2018-09-24T16:35:16.254Z,98866.50
2018-09-24T16:37:49.281Z,98871.38
2018-09-24T16:40:22.377Z,98864.10
2018-09-24T16:42:55.540Z,98870.84
2018-09-24T16:45:28.762Z,98867.33
2018-09-24T16:48:01.921Z,98867.39
2018-09-24T16:50:35.186Z,98875.48
2018-09-24T16:53:08.276Z,98880.06
2018-09-24T16:55:41.339Z,98879.52
2018-09-24T16:58:14.165Z,98878.71
2018-09-24T17:00:46.965Z,98886.02
2018-09-24T17:03:20.070Z,98881.46
2018-09-24T17:05:53.125Z,98884.98
2018-09-24T17:08:26.170Z,98883.64
2018-09-24T17:10:59.284Z,98880.70
2018-09-24T17:13:32.289Z,98884.74
2018-09-24T17:16:05.216Z,98893.66
2018-09-24T17:18:38.262Z,98891.53
2018-09-24T17:21:11.268Z,98896.64
2018-09-24T17:23:44.117Z,98899.33
2018-09-24T17:26:17.146Z,98903.39
2018-09-24T17:28:50.077Z,98906.91
2018-09-24T17:31:23.226Z,98910.70
2018-09-24T17:33:56.285Z,98912.83
2018-09-24T17:36:29.310Z,98914.18
2018-09-24T17:39:02.425Z,98906.91
2018-09-24T17:41:35.359Z,98919.63
2018-09-24T17:44:08.429Z,98922.85
2018-09-24T17:46:41.341Z,98927.47
2018-09-24T17:49:14.332Z,98935.27
2018-09-24T17:51:47.235Z,98935.80
2018-09-24T17:54:20.173Z,98936.34
2018-09-24T17:56:53.132Z,98937.69
2018-09-24T17:59:25.928Z,98943.08
2018-09-24T18:01:58.977Z,98940.66
2018-09-24T18:04:32.115Z,98942.83
2018-09-24T18:07:05.035Z,98941.78
2018-09-24T18:09:38.092Z,98931.64
2018-09-24T18:12:11.111Z,98945.82
2018-09-24T18:14:44.210Z,98946.11
2018-09-24T18:17:17.199Z,98952.02
2018-09-24T18:19:50.140Z,98962.29
2018-09-24T18:22:23.109Z,98962.83
2018-09-24T18:24:56.050Z,98967.92
2018-09-24T18:27:29.073Z,98964.74
2018-09-24T18:30:02.133Z,98970.67
2018-09-24T18:32:35.192Z,98975.81
2018-09-24T18:35:08.185Z,98979.05
2018-09-24T18:37:41.048Z,98986.36
2018-09-24T18:40:14.164Z,98991.44
2018-09-24T18:42:47.144Z,98993.88
2018-09-24T18:45:20.070Z,98994.45
2018-09-24T18:47:52.884Z,98998.75
2018-09-24T18:50:25.928Z,99000.88
2018-09-24T18:52:58.916Z,99006.02
2018-09-24T18:55:31.874Z,99012.52
2018-09-24T18:58:04.876Z,99008.47
2018-09-24T19:00:37.858Z,99012.52
2018-09-24T19:03:10.937Z,99016.28
2018-09-24T19:05:43.844Z,99010.40
2018-09-24T19:08:16.864Z,99016.03
2018-09-24T19:10:49.730Z,99014.40
2018-09-24T19:13:22.705Z,99019.25
2018-09-24T19:15:55.627Z,99023.30
2018-09-24T19:18:28.496Z,99024.13
2018-09-24T19:21:01.578Z,99020.08
2018-09-24T19:23:34.511Z,99027.11
2018-09-24T19:26:13.607Z,99026.82
2018-09-24T19:28:46.646Z,99024.70
2018-09-24T19:31:19.717Z,99028.21
2018-09-24T19:33:52.676Z,99038.18
2018-09-24T19:36:25.548Z,99037.94
2018-09-24T19:38:58.622Z,99039.23
2018-09-24T19:44:17.113Z,99039.28
2018-09-24T19:46:50.421Z,99044.38
2018-09-24T19:49:28.075Z,99037.94
2018-09-24T19:52:01.076Z,99046.56
2018-09-24T19:54:33.960Z,99048.19
2018-09-24T19:57:07.143Z,99047.09
2018-09-24T19:59:39.961Z,99040.11
2018-09-24T20:02:12.935Z,99044.69
2018-09-24T20:04:46.118Z,99041.73
2018-09-24T20:07:19.211Z,99042.03
2018-09-24T20:09:52.257Z,99040.68
2018-09-24T20:12:25.243Z,99047.13
2018-09-24T20:14:58.376Z,99045.55
2018-09-24T20:17:31.384Z,99048.53
2018-09-24T20:20:04.384Z,99048.77
2018-09-24T20:22:37.435Z,99050.94
2018-09-24T20:25:10.503Z,99054.48
2018-09-24T20:27:43.611Z,99059.59
2018-09-24T20:30:16.705Z,99063.63
2018-09-24T20:32:49.799Z,99066.61
2018-09-24T20:35:22.943Z,99071.44
2018-09-24T20:37:56.050Z,99073.08
2018-09-24T20:40:29.088Z,99073.64
2018-09-24T20:43:02.296Z,99075.52
2018-09-24T20:45:35.296Z,99076.34
2018-09-24T20:48:08.373Z,99079.33
2018-09-24T20:50:41.364Z,99078.26
2018-09-24T20:53:14.522Z,99079.61
2018-09-24T20:55:47.413Z,99090.39
2018-09-24T20:58:20.435Z,99087.98
2018-09-24T21:00:53.664Z,99102.52
2018-09-24T21:03:26.762Z,99092.27
2018-09-24T21:05:59.618Z,99092.52
2018-09-24T21:08:32.731Z,99090.67
2018-09-24T21:11:05.844Z,99098.48
2018-09-24T21:13:38.829Z,99098.48
2018-09-24T21:16:12.056Z,99099.05
2018-09-24T21:18:44.988Z,99096.88
2018-09-24T21:21:18.105Z,99101.17
2018-09-24T21:23:51.266Z,99101.21
2018-09-24T21:26:24.367Z,99109.26
2018-09-24T21:28:57.527Z,99110.93
2018-09-24T21:31:30.460Z,99109.58
2018-09-24T21:34:03.679Z,99111.45
2018-09-24T21:36:36.758Z,99112.52
2018-09-24T21:39:10.771Z,99110.14
2018-09-24T21:41:43.865Z,99114.97
2018-09-24T21:44:16.953Z,99110.43
2018-09-24T21:46:50.063Z,99116.31
2018-09-24T21:49:23.249Z,99115.53
2018-09-24T21:51:56.364Z,99114.47
2018-09-24T21:54:29.512Z,99111.21
2018-09-24T21:57:02.471Z,99106.64
2018-09-24T21:59:35.612Z,99117.17
2018-09-24T22:02:08.737Z,99115.30
2018-09-24T22:04:41.870Z,99113.70
2018-09-24T22:07:14.815Z,99119.62
2018-09-24T22:09:47.952Z,99115.86
2018-09-24T22:12:21.000Z,99116.39
2018-09-24T22:14:54.332Z,99119.66
2018-09-24T22:17:27.358Z,99129.33
2018-09-24T22:20:00.473Z,99123.95
2018-09-24T22:22:33.464Z,99122.59
2018-09-24T22:25:06.577Z,99127.98
2018-09-24T22:27:39.738Z,99126.39
2018-09-24T22:30:12.849Z,99129.87
2018-09-24T22:32:45.966Z,99137.17
2018-09-24T22:35:19.109Z,99131.78
2018-09-24T22:37:52.099Z,99135.83
2018-09-24T22:40:25.190Z,99135.05
2018-09-24T22:42:58.302Z,99132.34
2018-09-24T22:45:31.398Z,99137.17
2018-09-24T22:48:04.526Z,99136.39
2018-09-24T22:50:37.462Z,99141.78
2018-09-24T22:53:10.361Z,99137.73
2018-09-24T22:55:43.399Z,99145.82
2018-09-24T22:58:16.606Z,99147.98
2018-09-24T23:00:49.637Z,99153.91
2018-09-24T23:03:22.821Z,99152.56
2018-09-24T23:05:55.682Z,99153.41
2018-09-24T23:08:28.539Z,99156.88
2018-09-24T23:11:01.600Z,99163.34
2018-09-24T23:13:34.739Z,99163.09
2018-09-24T23:16:07.827Z,99160.92
2018-09-24T23:18:40.762Z,99169.54
2018-09-24T23:21:13.876Z,99173.05
2018-09-24T23:23:46.978Z,99169.58
2018-09-24T23:26:20.119Z,99175.78
2018-09-24T23:28:53.314Z,99170.67
2018-09-24T23:31:26.267Z,99175.25
2018-09-24T23:33:59.345Z,99187.09
2018-09-24T23:36:32.464Z,99183.33
2018-09-24T23:39:05.513Z,99191.41
2018-09-24T23:41:38.662Z,99194.11
2018-09-24T23:44:11.714Z,99184.42
2018-09-24T23:46:44.844Z,99188.47
2018-09-24T23:49:17.829Z,99189.81
2018-09-24T23:51:51.006Z,99193.85
2018-09-24T23:54:23.931Z,99188.75
2018-09-24T23:56:56.995Z,99186.59
2018-09-24T23:59:30.091Z,99189.28
